Time;durP1;ratioP1;P1;durP2;ratioP2;P2;SDS_P1;SDS_P2;PMS_P1;PMS_P2;Temp;Humidity;BMP_temperature;BMP_pressure;BME280_temperature;BME280_humidity;BME280_pressure;Samples;Min_cycle;Max_cycle;Signal;HPM_P1;HPM_P2
2021/04/27 00:00:54;;;;;;;4.07;2.60;;;7.60;1.00;8.60;100187.00;;;;5112176;27;20534;-79
2021/04/27 00:03:21;;;;;;;3.47;2.87;;;7.60;1.00;8.60;100200.00;;;;5098262;28;20458;-79
2021/04/27 00:05:49;;;;;;;5.97;3.27;;;7.60;1.00;8.60;100189.00;;;;5095355;28;20466;-80
2021/04/27 00:08:18;;;;;;;4.30;3.13;;;7.60;1.00;8.60;68160.00;;;;5095408;28;20524;-79
2021/04/27 00:10:46;;;;;;;6.27;3.70;;;7.60;1.00;8.60;100190.00;;;;5113180;27;20966;-79
2021/04/27 00:13:14;;;;;;;4.73;3.00;;;7.50;1.00;8.60;100194.00;;;;5094940;28;20917;-78
2021/04/27 00:15:41;;;;;;;5.73;3.10;;;7.60;1.00;8.60;100180.00;;;;5096193;28;20465;-80
2021/04/27 00:18:08;;;;;;;6.70;2.77;;;7.50;1.00;8.50;68152.00;;;;5094852;28;20441;-79
2021/04/27 00:20:36;;;;;;;4.87;2.90;;;7.50;1.00;8.50;100184.00;;;;5096989;28;20545;-79
2021/04/27 00:23:04;;;;;;;2.60;2.40;;;7.40;1.00;217.30;160341.00;;;;5094146;28;20461;-81
2021/04/27 00:25:33;;;;;;;4.57;3.03;;;7.40;1.00;217.30;160335.00;;;;5096916;27;20570;-79
2021/04/27 00:28:00;;;;;;;4.20;2.80;;;7.40;1.00;217.30;160323.00;;;;5095737;28;20449;-79
2021/04/27 00:30:29;;;;;;;3.47;2.70;;;7.40;1.00;8.50;100176.00;;;;5095300;28;20533;-79
2021/04/27 00:32:57;;;;;;;4.33;2.60;;;7.40;1.00;52.70;160329.00;;;;5102062;28;21024;-79
2021/04/27 00:35:25;;;;;;;4.47;2.87;;;7.40;1.00;8.40;100165.00;;;;5098611;28;20476;-80
2021/04/27 00:37:53;;;;;;;3.70;2.70;;;7.40;1.00;8.30;68126.00;;;;5102245;28;20457;-80
2021/04/27 00:40:21;;;;;;;3.90;2.63;;;7.30;1.00;8.40;100178.00;;;;5104430;28;20956;-80
2021/04/27 00:42:50;;;;;;;4.40;2.97;;;7.30;1.00;8.40;100157.00;;;;5104919;28;20817;-82
2021/04/27 00:45:20;;;;;;;4.40;3.00;;;7.30;1.00;8.40;100162.00;;;;5119584;27;20489;-80
2021/04/27 00:47:48;;;;;;;4.47;2.47;;;7.30;1.00;8.40;100176.00;;;;5102531;28;20454;-80
2021/04/27 00:50:21;;;;;;;5.13;3.23;;;7.30;1.00;8.30;100159.00;;;;5100266;28;20458;-80
2021/04/27 00:52:48;;;;;;;3.33;2.60;;;7.30;1.00;8.30;100156.00;;;;5095782;28;20470;-79
2021/04/27 00:55:16;;;;;;;4.33;2.60;;;7.30;1.00;8.30;100138.00;;;;5095434;28;20460;-79
2021/04/27 00:57:44;;;;;;;4.70;2.83;;;7.30;1.00;8.30;100161.00;;;;5111593;27;20525;-80
2021/04/27 01:00:17;;;;;;;2.70;2.50;;;7.30;1.00;8.40;100149.00;;;;5094799;28;20608;-80
2021/04/27 01:02:44;;;;;;;3.33;2.70;;;7.30;1.00;8.30;100136.00;;;;5093883;28;20508;-80
2021/04/27 01:05:15;;;;;;;5.03;2.40;;;7.30;1.00;8.30;68102.00;;;;5094837;28;20983;-79
2021/04/27 01:07:51;;;;;;;3.77;2.70;;;7.30;1.00;8.30;100151.00;;;;5076970;28;20454;-80
2021/04/27 01:10:26;;;;;;;3.03;2.50;;;7.30;1.00;8.20;100153.00;;;;5095446;28;20446;-79
2021/04/27 01:12:59;;;;;;;3.80;2.60;;;7.20;1.00;8.20;100148.00;;;;5111767;27;20572;-80
2021/04/27 01:15:29;;;;;;;3.90;2.83;;;7.20;1.00;8.20;68069.00;;;;5098028;28;21114;-78
2021/04/27 01:17:59;;;;;;;7.50;2.83;;;7.20;1.00;8.20;100135.00;;;;5102052;28;20488;-78
2021/04/27 01:20:38;;;;;;;3.87;2.70;;;7.20;1.00;8.20;100142.00;;;;5098874;28;20478;-78
2021/04/27 01:23:35;;;;;;;4.20;2.80;;;7.20;1.00;8.20;100147.00;;;;5096985;28;20551;-79
2021/04/27 01:26:06;;;;;;;2.87;2.57;;;7.20;1.00;8.20;100138.00;;;;5089887;28;20481;-81
2021/04/27 01:28:42;;;;;;;4.67;2.30;;;7.30;1.00;8.10;100135.00;;;;5104080;28;20460;-80
2021/04/27 01:31:10;;;;;;;3.17;2.67;;;7.10;1.00;217.30;160172.00;;;;5100818;28;20450;-80
2021/04/27 01:33:39;;;;;;;4.13;2.80;;;7.10;1.00;8.10;100138.00;;;;5118050;27;20474;-80
2021/04/27 01:36:08;;;;;;;3.10;2.00;;;7.10;1.00;8.10;100129.00;;;;5110148;28;20478;-79
2021/04/27 01:38:44;;;;;;;3.03;2.67;;;7.10;1.00;8.00;68042.00;;;;5135680;27;20441;-79
2021/04/27 01:41:11;;;;;;;6.00;2.97;;;7.10;1.00;8.00;68042.00;;;;5107999;28;20486;-80
2021/04/27 01:43:44;;;;;;;4.30;2.60;;;7.10;1.00;8.10;100134.00;;;;5097663;28;20519;-78
2021/04/27 01:46:12;;;;;;;5.97;3.30;;;7.10;1.00;8.10;100141.00;;;;5096323;28;20473;-79
2021/04/27 01:48:41;;;;;;;3.73;2.70;;;7.10;1.00;8.00;100116.00;;;;5098422;28;20540;-80
2021/04/27 01:51:11;;;;;;;3.20;2.50;;;7.00;1.00;7.90;68012.00;;;;5096878;28;20453;-80
2021/04/27 01:54:15;;;;;;;2.37;2.07;;;7.10;1.00;7.90;100132.00;;;;5097967;28;20985;-79
2021/04/27 01:56:42;;;;;;;5.43;2.60;;;6.90;1.00;7.90;100116.00;;;;5096896;28;20544;-81
2021/04/27 01:59:10;;;;;;;3.47;2.67;;;6.80;1.00;7.80;100127.00;;;;5095200;28;20994;-79
2021/04/27 02:01:42;;;;;;;3.43;2.70;;;6.80;1.00;7.80;100121.00;;;;5081228;28;20457;-80
2021/04/27 02:04:10;;;;;;;6.33;3.30;;;6.80;1.00;217.30;160027.00;;;;5099229;28;20481;-80
2021/04/27 02:07:10;;;;;;;3.10;2.80;;;6.70;1.00;7.70;100132.00;;;;5058987;28;20473;-80
2021/04/27 02:09:38;;;;;;;3.83;2.70;;;6.60;1.00;7.70;100136.00;;;;5101977;28;20978;-80
2021/04/27 02:12:14;;;;;;;4.03;3.30;;;6.60;1.00;7.70;100111.00;;;;5103585;28;20487;-79
2021/04/27 02:14:45;;;;;;;4.37;3.20;;;6.60;1.00;7.60;100116.00;;;;5100166;28;20498;-79
2021/04/27 02:17:20;;;;;;;4.83;3.07;;;6.60;1.00;7.60;100100.00;;;;5101904;28;20500;-80
2021/04/27 02:19:50;;;;;;;4.20;2.70;;;6.50;1.00;7.60;100111.00;;;;5099168;28;20455;-80
2021/04/27 02:22:58;;;;;;;3.70;2.87;;;6.60;1.00;7.60;100117.00;;;;5093271;28;20457;-80
2021/04/27 02:25:47;;;;;;;3.80;2.90;;;6.50;1.00;7.50;100120.00;;;;5097518;28;20476;-80
2021/04/27 02:28:18;;;;;;;5.63;2.90;;;6.50;1.00;7.50;100068.00;;;;5097250;28;20454;-80
2021/04/27 02:30:47;;;;;;;4.10;2.87;;;6.40;1.00;7.40;100119.00;;;;5112628;27;20484;-80
2021/04/27 02:33:15;;;;;;;3.13;2.70;;;6.40;1.00;7.40;100115.00;;;;5077888;28;20477;-79
2021/04/27 02:35:44;;;;;;;4.90;2.53;;;6.30;1.00;7.40;100107.00;;;;5097142;28;20504;-80
2021/04/27 02:38:22;;;;;;;3.53;2.63;;;6.30;1.00;7.30;100099.00;;;;5096395;28;20464;-81
2021/04/27 02:40:52;;;;;;;5.23;3.00;;;6.20;1.00;7.40;100093.00;;;;5109829;27;20469;-80
2021/04/27 02:43:20;;;;;;;2.97;2.67;;;6.30;1.00;7.30;100096.00;;;;5095931;28;20512;-79
2021/04/27 02:45:49;;;;;;;3.50;2.20;;;6.30;1.00;7.30;100096.00;;;;5094812;28;20515;-80
2021/04/27 02:48:35;;;;;;;4.23;2.40;;;6.20;1.00;7.30;100097.00;;;;5093962;28;20450;-81
2021/04/27 02:51:11;;;;;;;4.30;2.60;;;6.20;1.00;217.30;159792.00;;;;5090896;28;20730;-82
2021/04/27 02:53:50;;;;;;;4.00;2.80;;;6.20;1.00;7.20;100103.00;;;;5093410;28;20453;-80
2021/04/27 02:56:18;;;;;;;2.83;2.57;;;6.20;1.00;7.20;100092.00;;;;5092463;28;20518;-81
2021/04/27 02:58:50;;;;;;;4.33;2.40;;;6.10;1.00;7.20;67853.00;;;;5092894;28;21109;-81
2021/04/27 03:01:20;;;;;;;4.10;2.50;;;6.10;1.00;7.10;100092.00;;;;5076020;28;20802;-81
2021/04/27 03:03:47;;;;;;;3.50;2.90;;;6.10;1.00;52.70;159750.00;;;;5093707;28;20851;-81
2021/04/27 03:06:16;;;;;;;4.37;3.30;;;6.10;1.00;7.10;100093.00;;;;5094640;28;21016;-81
2021/04/27 03:09:02;;;;;;;4.33;2.70;;;6.00;1.00;7.10;100077.00;;;;5098189;28;20555;-79
2021/04/27 03:11:30;;;;;;;7.07;3.13;;;6.00;1.00;7.00;100089.00;;;;5110331;28;20464;-79
2021/04/27 03:13:57;;;;;;;3.53;2.60;;;6.00;1.00;6.90;100081.00;;;;5114353;28;20450;-81
2021/04/27 03:16:26;;;;;;;2.90;2.37;;;5.80;1.00;6.90;100088.00;;;;5114314;28;20474;-80
2021/04/27 03:18:53;;;;;;;4.47;3.13;;;5.70;1.00;6.80;100084.00;;;;5134290;28;20467;-80
2021/04/27 03:21:24;;;;;;;5.10;2.50;;;5.70;1.00;6.70;67751.00;;;;5102770;28;20453;-82
2021/04/27 03:23:54;;;;;;;4.00;2.50;;;5.60;1.00;6.70;100091.00;;;;5100180;28;20521;-82
2021/04/27 03:26:23;;;;;;;4.90;2.70;;;5.50;1.00;6.70;100083.00;;;;5112047;28;20979;-81
2021/04/27 03:29:09;;;;;;;3.13;2.40;;;5.50;1.00;6.60;100083.00;;;;5096074;28;21047;-81
2021/04/27 03:31:47;;;;;;;5.20;2.67;;;5.50;1.00;6.60;100100.00;;;;5115555;28;20481;-81
2021/04/27 03:34:14;;;;;;;3.23;2.40;;;5.50;1.00;6.50;100063.00;;;;5096577;28;20501;-81
2021/04/27 03:36:42;;;;;;;4.87;2.90;;;5.40;1.00;6.50;100074.00;;;;5096150;28;21467;-81
2021/04/27 03:39:09;;;;;;;9.00;4.00;;;5.30;1.00;6.50;100068.00;;;;5095068;28;20861;-83
2021/04/27 03:41:37;;;;;;;2.90;2.30;;;5.30;1.00;6.40;100070.00;;;;5094324;28;20474;-81
2021/04/27 03:44:05;;;;;;;3.17;2.70;;;5.30;1.00;6.40;100081.00;;;;5097581;28;20450;-82
2021/04/27 03:46:35;;;;;;;4.53;2.90;;;5.20;1.00;6.40;100077.00;;;;5114320;28;20481;-81
2021/04/27 03:49:05;;;;;;;3.57;2.93;;;5.10;1.00;6.30;100070.00;;;;5117535;28;20457;-79
2021/04/27 03:51:34;;;;;;;3.20;2.40;;;5.10;1.00;6.30;100058.00;;;;5118343;28;20476;-82
2021/04/27 03:54:07;;;;;;;4.60;3.00;;;5.10;1.00;6.20;100067.00;;;;5099093;28;20450;-81
2021/04/27 03:56:38;;;;;;;6.30;2.80;;;5.00;1.00;6.20;100058.00;;;;5095485;28;20478;-80
2021/04/27 03:59:08;;;;;;;6.67;3.67;;;5.00;1.00;217.30;159337.00;;;;5093306;28;20450;-80
2021/04/27 04:01:36;;;;;;;7.20;3.00;;;5.00;1.00;6.10;67612.00;;;;5094398;28;20475;-82
2021/04/27 04:04:06;;;;;;;5.87;2.90;;;5.00;1.00;6.10;100067.00;;;;5094682;28;20457;-80
2021/04/27 04:06:34;;;;;;;4.97;3.00;;;5.00;1.00;6.10;100058.00;;;;5094117;28;20461;-81
2021/04/27 04:09:06;;;;;;;4.73;2.70;;;5.00;1.00;6.10;100061.00;;;;5095938;28;20689;-81
2021/04/27 04:11:47;;;;;;;3.40;2.83;;;4.90;1.00;6.10;100070.00;;;;5081684;28;20510;-81
2021/04/27 04:14:15;;;;;;;6.87;3.20;;;4.90;1.00;6.10;100073.00;;;;5097886;28;20452;-80
2021/04/27 04:17:08;;;;;;;4.63;3.00;;;4.90;1.00;6.10;100075.00;;;;5096079;28;20458;-80
2021/04/27 04:19:38;;;;;;;3.57;2.63;;;4.90;1.00;6.10;100082.00;;;;5097999;28;20966;-82
2021/04/27 04:22:07;;;;;;;3.83;3.03;;;4.80;1.00;6.10;100076.00;;;;5082126;28;20460;-82
2021/04/27 04:24:42;;;;;;;6.87;3.30;;;4.90;1.00;6.10;100069.00;;;;5095728;28;20485;-81
2021/04/27 04:27:09;;;;;;;3.70;3.00;;;4.90;1.00;217.30;159300.00;;;;5100937;28;20469;-82
2021/04/27 04:29:44;;;;;;;4.90;4.00;;;4.90;1.00;6.10;67601.00;;;;5094348;28;20875;-81
2021/04/27 04:32:50;;;;;;;6.30;3.20;;;4.90;1.00;52.70;159300.00;;;;5076351;28;20466;-81
2021/04/27 04:35:51;;;;;;;4.33;3.27;;;4.90;1.00;6.20;100079.00;;;;5075967;28;20462;-81
2021/04/27 04:38:54;;;;;;;5.83;2.90;;;5.00;1.00;6.30;100060.00;;;;5033067;28;20448;-80
2021/04/27 04:41:40;;;;;;;5.97;3.43;;;5.00;1.00;6.30;100073.00;;;;5092704;28;20448;-82
2021/04/27 04:44:27;;;;;;;5.50;3.13;;;5.00;1.00;6.30;100066.00;;;;5094305;28;20534;-82
2021/04/27 04:47:17;;;;;;;6.27;3.90;;;5.10;1.00;6.40;100067.00;;;;5094860;28;20470;-80
2021/04/27 04:50:08;;;;;;;4.50;2.93;;;5.20;1.00;6.50;100057.00;;;;5096680;28;20453;-82
2021/04/27 04:52:56;;;;;;;3.47;3.13;;;5.30;1.00;6.60;100080.00;;;;5083085;28;20481;-81
2021/04/27 04:55:41;;;;;;;6.03;3.23;;;5.40;1.00;6.70;100052.00;;;;5097467;28;20562;-82
2021/04/27 04:58:29;;;;;;;4.70;2.90;;;5.50;1.00;217.30;159599.00;;;;5091344;28;20456;-81
2021/04/27 05:01:03;;;;;;;8.33;2.90;;;5.60;1.00;217.30;159639.00;;;;5103980;27;20476;-81
2021/04/27 05:03:34;;;;;;;4.03;3.13;;;5.70;1.00;217.30;159667.00;;;;5088713;28;21053;-81
2021/04/27 05:06:21;;;;;;;5.43;3.03;;;5.80;1.00;217.30;159756.00;;;;5093287;28;20593;-81
2021/04/27 05:09:11;;;;;;;3.80;3.10;;;6.00;1.00;217.30;159859.00;;;;5103276;28;20456;-81
2021/04/27 05:12:05;;;;;;;4.90;3.23;;;6.10;1.00;7.50;100079.00;;;;5099708;28;20474;-81
2021/04/27 05:14:35;;;;;;;3.50;3.20;;;6.30;1.00;7.70;100087.00;;;;5117378;28;20480;-80
2021/04/27 05:17:05;;;;;;;4.00;3.20;;;6.40;1.00;7.80;100060.00;;;;5114026;28;20466;-81
2021/04/27 05:19:33;;;;;;;4.13;2.97;;;6.50;1.00;7.90;100068.00;;;;5081629;28;20458;-81
2021/04/27 05:22:04;;;;;;;7.07;3.10;;;6.60;1.00;8.00;100067.00;;;;5104685;28;20458;-81
2021/04/27 05:24:33;;;;;;;3.90;2.80;;;6.80;1.00;8.10;100066.00;;;;5108847;28;20510;-81
2021/04/27 05:27:13;;;;;;;3.47;2.90;;;6.80;1.00;8.20;100065.00;;;;5113913;28;20480;-81
2021/04/27 05:29:43;;;;;;;4.73;3.23;;;6.90;1.00;8.30;100067.00;;;;5119484;28;20426;-79
2021/04/27 05:32:11;;;;;;;6.63;3.10;;;7.00;1.00;217.30;160255.00;;;;5134059;27;20465;-80
2021/04/27 05:34:39;;;;;;;4.43;2.50;;;7.10;1.00;8.40;100074.00;;;;5102310;28;20501;-82
2021/04/27 05:37:06;;;;;;;4.80;2.90;;;7.10;1.00;8.40;100059.00;;;;5101698;28;20525;-82
2021/04/27 05:39:35;;;;;;;5.80;3.37;;;7.20;1.00;8.50;100058.00;;;;5101144;28;20457;-81
2021/04/27 05:42:03;;;;;;;6.27;3.23;;;7.30;1.00;8.70;100077.00;;;;5102174;28;20544;-80
2021/04/27 05:44:31;;;;;;;6.17;3.20;;;7.40;1.00;8.80;100064.00;;;;5098536;28;20446;-79
2021/04/27 05:46:58;;;;;;;5.77;2.70;;;7.60;1.00;8.80;100063.00;;;;5100353;28;20469;-82
2021/04/27 05:49:26;;;;;;;4.50;2.80;;;7.70;1.00;9.00;100055.00;;;;5095406;28;20461;-81
2021/04/27 05:51:54;;;;;;;3.00;2.70;;;7.80;1.00;9.00;100059.00;;;;5092776;28;20480;-80
2021/04/27 05:54:21;;;;;;;5.47;3.07;;;7.90;1.00;9.20;100061.00;;;;5112979;27;20560;-80
2021/04/27 05:56:50;;;;;;;7.10;2.63;;;7.90;1.00;9.10;100057.00;;;;5098902;28;20510;-81
2021/04/27 05:59:17;;;;;;;6.33;3.03;;;7.90;1.00;9.00;100058.00;;;;5096182;28;20441;-80
2021/04/27 06:01:45;;;;;;;6.03;3.30;;;7.90;1.00;9.20;100051.00;;;;5098114;28;20442;-80
2021/04/27 06:04:13;;;;;;;4.73;2.80;;;8.00;1.00;9.20;100053.00;;;;5115118;27;20472;-80
2021/04/27 06:06:40;;;;;;;5.80;3.27;;;8.00;1.00;9.20;100062.00;;;;5095972;28;20531;-79
2021/04/27 06:09:09;;;;;;;5.73;2.63;;;8.00;1.00;9.10;100061.00;;;;5093671;28;20578;-80
2021/04/27 06:11:37;;;;;;;4.87;3.07;;;8.00;1.00;9.00;100067.00;;;;5095040;28;20814;-80
2021/04/27 06:14:06;;;;;;;6.17;2.67;;;7.90;1.00;9.10;100069.00;;;;5096065;28;20510;-80
2021/04/27 06:16:33;;;;;;;5.87;3.23;;;7.90;1.00;9.10;100058.00;;;;5111654;27;20545;-79
2021/04/27 06:19:00;;;;;;;5.63;3.10;;;7.90;1.00;9.20;100046.00;;;;5094861;28;20513;-80
2021/04/27 06:21:28;;;;;;;4.30;3.30;;;8.00;1.00;9.30;100051.00;;;;5097009;28;20577;-80
2021/04/27 06:23:55;;;;;;;8.70;3.20;;;8.20;1.00;9.40;100055.00;;;;5095937;28;20552;-81
2021/04/27 06:26:24;;;;;;;3.90;3.03;;;8.20;1.00;9.40;100039.00;;;;5100366;28;20997;-80
2021/04/27 06:28:51;;;;;;;2.83;2.60;;;8.30;1.00;9.30;100056.00;;;;5098200;28;21518;-80
2021/04/27 06:31:20;;;;;;;6.90;2.80;;;8.30;1.00;9.50;100049.00;;;;5093623;28;20457;-81
2021/04/27 06:33:48;;;;;;;6.70;3.10;;;8.40;1.00;9.60;100056.00;;;;5092052;28;20550;-80
2021/04/27 06:36:16;;;;;;;4.83;3.07;;;8.50;1.00;9.40;100036.00;;;;5096284;28;20564;-80
2021/04/27 06:38:47;;;;;;;4.23;3.60;;;8.60;1.00;9.60;100048.00;;;;5114030;27;20460;-80
2021/04/27 06:41:15;;;;;;;4.10;3.00;;;8.70;1.00;9.50;100043.00;;;;5097035;28;20500;-80
2021/04/27 06:43:43;;;;;;;5.87;2.93;;;8.60;1.00;9.50;100043.00;;;;5112123;27;20462;-81
2021/04/27 06:46:10;;;;;;;4.37;3.13;;;8.50;1.00;9.50;100060.00;;;;5097706;28;20506;-80
2021/04/27 06:48:38;;;;;;;7.00;2.80;;;8.50;1.00;9.60;100036.00;;;;5095657;28;20498;-81
2021/04/27 06:51:08;;;;;;;4.80;3.00;;;8.60;1.00;9.70;100041.00;;;;5101638;28;20450;-80
2021/04/27 06:53:36;;;;;;;5.93;3.50;;;8.70;1.00;9.80;100058.00;;;;5104439;28;20469;-79
2021/04/27 06:56:05;;;;;;;13.20;2.87;;;8.80;1.00;9.90;100041.00;;;;5098601;28;20494;-81
2021/04/27 06:58:32;;;;;;;10.67;3.97;;;8.90;1.00;10.00;100050.00;;;;5102648;28;20486;-81
2021/04/27 07:01:00;;;;;;;5.73;3.10;;;9.00;1.00;10.20;100040.00;;;;5099978;28;20458;-81
2021/04/27 07:03:27;;;;;;;4.23;2.53;;;9.10;1.00;10.20;100045.00;;;;5099568;28;20484;-80
2021/04/27 07:05:55;;;;;;;6.00;3.10;;;9.20;1.00;10.20;100032.00;;;;5100766;28;20466;-81
2021/04/27 07:08:23;;;;;;;9.20;3.20;;;9.20;1.00;10.30;100061.00;;;;5098664;28;20445;-81
2021/04/27 07:10:57;;;;;;;4.03;2.80;;;9.30;1.00;10.40;100030.00;;;;5112853;28;20476;-80
2021/04/27 07:13:25;;;;;;;4.30;2.90;;;9.40;1.00;10.50;100045.00;;;;5081076;28;21444;-81
2021/04/27 07:15:53;;;;;;;3.33;2.73;;;9.50;1.00;10.60;100046.00;;;;5099472;28;20488;-80
2021/04/27 07:18:21;;;;;;;3.60;2.83;;;9.60;1.00;10.50;100027.00;;;;5080943;28;20453;-79
2021/04/27 07:20:49;;;;;;;8.00;3.17;;;9.60;1.00;10.50;100027.00;;;;5091174;28;20458;-80
2021/04/27 07:23:20;;;;;;;5.60;2.70;;;9.60;1.00;10.60;100032.00;;;;5079863;28;20462;-79
2021/04/27 07:25:48;;;;;;;5.00;3.23;;;9.60;1.00;10.70;100033.00;;;;5092418;28;20548;-80
2021/04/27 07:28:17;;;;;;;5.10;2.67;;;9.70;1.00;10.70;100003.00;;;;5095820;28;20446;-83
2021/04/27 07:30:45;;;;;;;5.27;2.90;;;9.70;1.00;10.90;100033.00;;;;5092313;28;20454;-80
2021/04/27 07:33:14;;;;;;;4.33;2.70;;;9.90;1.00;10.90;100032.00;;;;5113462;28;20494;-84
2021/04/27 07:35:42;;;;;;;7.17;3.17;;;9.90;1.00;10.90;100022.00;;;;5111210;28;20532;-82
2021/04/27 07:38:09;;;;;;;7.17;2.60;;;10.00;1.00;10.90;100032.00;;;;5109026;28;21463;-82
2021/04/27 07:40:38;;;;;;;4.73;2.97;;;10.10;1.00;11.00;68692.00;;;;5100703;28;20446;-82
2021/04/27 07:43:06;;;;;;;4.90;2.53;;;10.20;1.00;11.00;100027.00;;;;5103424;28;20478;-80
2021/04/27 07:45:34;;;;;;;6.97;2.80;;;10.20;1.00;11.10;100017.00;;;;5109808;28;20928;-82
2021/04/27 07:48:08;;;;;;;2.93;2.33;;;10.30;1.00;11.20;100021.00;;;;5108263;28;20465;-81
2021/04/27 07:50:37;;;;;;;6.33;3.57;;;10.30;1.00;11.20;100009.00;;;;5103576;28;20444;-81
2021/04/27 07:53:06;;;;;;;6.10;2.83;;;10.40;1.00;11.40;100010.00;;;;5096820;28;20512;-82
2021/04/27 07:55:34;;;;;;;3.93;2.53;;;10.60;1.00;11.40;100000.00;;;;5115614;28;20493;-84
2021/04/27 07:58:04;;;;;;;5.23;4.10;;;10.60;1.00;11.60;100010.00;;;;5116432;28;20518;-82
2021/04/27 08:00:32;;;;;;;8.10;3.67;;;10.70;1.00;11.60;100014.00;;;;5111204;28;20446;-82
2021/04/27 08:03:00;;;;;;;2.97;2.40;;;10.70;1.00;11.70;100020.00;;;;5118937;28;20437;-81
2021/04/27 08:05:29;;;;;;;3.13;2.67;;;10.80;1.00;11.80;100015.00;;;;5111663;28;20464;-81
2021/04/27 08:07:57;;;;;;;3.63;3.00;;;11.00;1.00;11.70;100010.00;;;;5112888;28;20514;-82
2021/04/27 08:10:26;;;;;;;6.93;2.50;;;11.00;1.00;217.30;161680.00;;;;5121429;28;20461;-82
2021/04/27 08:12:55;;;;;;;5.00;2.37;;;10.90;1.00;11.90;99997.00;;;;5116956;28;20491;-81
2021/04/27 08:15:27;;;;;;;3.97;2.57;;;11.00;1.00;217.30;161888.00;;;;5117331;28;21018;-82
2021/04/27 08:17:58;;;;;;;5.20;2.97;;;11.20;1.00;12.20;100003.00;;;;5110700;28;20445;-81
2021/04/27 08:20:29;;;;;;;4.27;2.53;;;11.30;1.00;12.30;100013.00;;;;5109921;28;20450;-83
2021/04/27 08:22:58;;;;;;;8.43;3.40;;;11.40;1.00;12.30;99980.00;;;;5129046;27;20449;-82
2021/04/27 08:25:46;;;;;;;4.10;2.57;;;11.50;1.00;52.70;162035.00;;;;5113898;28;20560;-82
2021/04/27 08:28:13;;;;;;;4.63;3.33;;;11.60;1.00;12.30;99981.00;;;;5115851;28;20430;-82
2021/04/27 08:30:45;;;;;;;6.13;3.57;;;11.60;1.00;12.40;99988.00;;;;5114444;28;20456;-83
2021/04/27 08:33:12;;;;;;;3.20;2.33;;;11.60;1.00;12.50;100008.00;;;;5127216;27;20500;-81
2021/04/27 08:35:40;;;;;;;4.30;3.00;;;11.70;1.00;12.50;99994.00;;;;5111623;28;20468;-83
2021/04/27 08:38:08;;;;;;;4.70;2.60;;;11.80;1.00;12.70;99991.00;;;;5108750;28;20460;-82
2021/04/27 08:40:35;;;;;;;3.20;2.47;;;11.90;1.00;12.60;99982.00;;;;5117470;28;20593;-82
2021/04/27 08:43:04;;;;;;;4.80;2.67;;;12.00;1.00;12.70;99991.00;;;;5120683;28;20429;-82
2021/04/27 08:45:31;;;;;;;3.80;2.90;;;12.00;1.00;217.30;162235.00;;;;5111620;28;21007;-82
2021/04/27 08:48:00;;;;;;;6.60;3.10;;;12.10;1.00;13.00;99974.00;;;;5109822;28;21824;-82
2021/04/27 08:50:29;;;;;;;4.90;3.43;;;12.20;1.00;13.00;99984.00;;;;5089330;28;20481;-82
2021/04/27 08:52:57;;;;;;;9.70;5.70;;;12.40;1.00;12.90;99968.00;;;;5111389;28;20628;-82
2021/04/27 08:55:24;;;;;;;4.17;3.17;;;12.50;1.00;13.10;99990.00;;;;5102229;28;20477;-79
2021/04/27 08:57:52;;;;;;;4.27;2.70;;;12.40;1.00;13.20;99980.00;;;;5119980;27;20534;-81
2021/04/27 09:00:23;;;;;;;10.43;7.13;;;12.40;1.00;13.30;99993.00;;;;5119871;27;20457;-80
2021/04/27 09:02:56;;;;;;;5.13;3.23;;;12.60;1.00;13.40;99979.00;;;;5116137;28;20507;-81
2021/04/27 09:05:29;;;;;;;5.43;3.30;;;12.60;1.00;13.50;99984.00;;;;5115400;28;20502;-80
2021/04/27 09:08:13;;;;;;;6.03;2.90;;;12.70;1.00;13.50;99973.00;;;;5112077;28;20446;-82
2021/04/27 09:10:44;;;;;;;5.03;3.33;;;12.90;1.00;13.50;99976.00;;;;5106393;28;20470;-81
2021/04/27 09:13:17;;;;;;;6.20;3.20;;;12.80;1.00;13.50;99970.00;;;;5096842;28;20487;-80
2021/04/27 09:15:48;;;;;;;5.00;3.23;;;12.80;1.00;13.60;99968.00;;;;5098854;28;20495;-79
2021/04/27 09:18:29;;;;;;;4.10;3.63;;;12.90;1.00;217.30;162594.00;;;;5097780;28;20481;-78
2021/04/27 09:21:00;;;;;;;4.93;4.20;;;13.00;1.00;13.70;99924.00;;;;5100503;28;20511;-78
2021/04/27 09:23:29;;;;;;;4.03;3.07;;;13.20;1.00;13.80;99967.00;;;;5111475;27;20450;-78
2021/04/27 09:26:14;;;;;;;6.90;3.83;;;13.20;1.00;13.90;99950.00;;;;5094766;28;20474;-78
2021/04/27 09:28:44;;;;;;;5.00;3.50;;;13.30;1.00;13.90;99958.00;;;;5078057;28;20534;-78
2021/04/27 09:31:23;;;;;;;5.13;3.53;;;13.30;1.00;217.30;162703.00;;;;5095349;28;20547;-77
2021/04/27 09:33:53;;;;;;;3.80;3.07;;;13.30;1.00;13.90;99951.00;;;;5096387;28;21025;-80
2021/04/27 09:36:27;;;;;;;6.50;3.50;;;13.30;1.00;13.90;99955.00;;;;5105941;28;20466;-80
2021/04/27 09:38:55;;;;;;;7.20;5.67;;;13.40;1.00;14.00;99945.00;;;;5106290;28;20450;-79
2021/04/27 09:41:25;;;;;;;3.77;3.40;;;13.30;1.00;14.00;99951.00;;;;5115788;28;20449;-80
2021/04/27 09:43:54;;;;;;;5.70;4.00;;;13.40;1.00;14.10;99938.00;;;;5114362;28;20492;-79
2021/04/27 09:46:23;;;;;;;5.80;3.50;;;13.40;1.00;14.20;99937.00;;;;5117480;28;20481;-79
2021/04/27 09:48:54;;;;;;;5.77;3.40;;;13.60;1.00;14.20;99932.00;;;;5118018;28;20443;-79
2021/04/27 09:51:37;;;;;;;5.20;3.80;;;13.70;1.00;14.20;99935.00;;;;5113744;28;20441;-80
2021/04/27 09:54:12;;;;;;;4.67;3.53;;;13.60;1.00;217.30;162816.00;;;;5112129;28;20536;-79
2021/04/27 09:56:46;;;;;;;4.30;3.83;;;13.60;1.00;14.40;99919.00;;;;5127553;27;20541;-81
2021/04/27 09:59:16;;;;;;;3.97;3.57;;;13.70;1.00;14.60;99910.00;;;;5103535;28;20484;-80
2021/04/27 10:01:48;;;;;;;5.30;3.77;;;14.00;1.00;14.60;99896.00;;;;5083074;28;20457;-80
2021/04/27 10:04:18;;;;;;;7.90;3.93;;;14.20;1.00;14.70;99905.00;;;;5102865;28;20462;-80
2021/04/27 10:06:48;;;;;;;5.70;3.87;;;14.20;1.00;14.80;99904.00;;;;5102043;28;21053;-80
2021/04/27 10:09:16;;;;;;;5.10;3.70;;;14.30;1.00;14.80;99911.00;;;;5106097;28;20445;-80
2021/04/27 10:11:45;;;;;;;4.40;3.73;;;14.40;1.00;14.90;99888.00;;;;5109758;28;20438;-80
2021/04/27 10:14:12;;;;;;;4.17;3.77;;;14.40;1.00;15.00;99905.00;;;;5110709;28;20485;-81
2021/04/27 10:16:40;;;;;;;4.50;4.03;;;14.40;1.00;14.90;99896.00;;;;5112807;28;20548;-79
2021/04/27 10:19:13;;;;;;;6.50;3.97;;;14.50;1.00;15.10;99894.00;;;;5129087;27;20438;-80
2021/04/27 10:21:41;;;;;;;5.13;4.10;;;14.60;1.00;15.20;99899.00;;;;5128235;27;20498;-79
2021/04/27 10:24:16;;;;;;;4.53;4.13;;;14.60;1.00;15.30;99891.00;;;;5111895;28;20450;-79
2021/04/27 10:26:46;;;;;;;5.97;4.60;;;14.70;1.00;15.20;99889.00;;;;5109486;28;20528;-80
2021/04/27 10:29:17;;;;;;;5.13;4.00;;;14.70;1.00;15.30;99894.00;;;;5109189;28;20442;-80
2021/04/27 10:31:47;;;;;;;4.73;4.27;;;14.80;1.00;15.30;99878.00;;;;5100099;28;20450;-79
2021/04/27 10:34:17;;;;;;;7.10;5.00;;;14.80;1.00;15.60;99877.00;;;;5096800;28;20470;-81
2021/04/27 10:37:06;;;;;;;4.57;4.17;;;15.10;1.00;15.70;99889.00;;;;5097403;28;20546;-80
2021/04/27 10:39:40;;;;;;;6.07;4.10;;;15.30;1.00;15.90;99860.00;;;;5096670;28;20477;-81
2021/04/27 10:42:18;;;;;;;6.30;4.20;;;15.50;1.00;16.00;99876.00;;;;5095355;28;20481;-80
2021/04/27 10:44:56;;;;;;;5.27;4.30;;;15.60;1.00;15.80;99865.00;;;;5091948;28;20581;-81
2021/04/27 10:47:25;;;;;;;4.90;4.47;;;15.50;1.00;15.90;99853.00;;;;5095824;28;20485;-81
2021/04/27 10:49:56;;;;;;;5.87;4.33;;;15.40;1.00;16.00;99859.00;;;;5091974;28;20456;-81
2021/04/27 10:52:32;;;;;;;5.17;4.00;;;15.50;1.00;16.10;99858.00;;;;5093066;28;20986;-82
2021/04/27 10:55:29;;;;;;;5.33;4.47;;;15.60;1.00;16.20;99849.00;;;;5097367;28;20479;-82
2021/04/27 10:58:00;;;;;;;8.87;5.13;;;15.60;1.00;16.20;99851.00;;;;5093019;28;21439;-81
2021/04/27 11:00:48;;;;;;;5.53;4.93;;;15.60;1.00;16.30;99838.00;;;;5112932;28;20594;-82
2021/04/27 11:03:20;;;;;;;5.07;4.57;;;15.70;1.00;16.30;99842.00;;;;5093812;28;20469;-81
2021/04/27 11:06:13;;;;;;;8.57;7.67;;;15.80;1.00;16.40;99843.00;;;;5093301;28;20493;-82
2021/04/27 11:08:48;;;;;;;7.57;4.17;;;15.90;1.00;16.40;99837.00;;;;5096620;28;20454;-81
2021/04/27 11:11:24;;;;;;;6.63;5.97;;;16.00;1.00;16.40;99842.00;;;;5096047;28;20445;-80
2021/04/27 11:14:12;;;;;;;6.60;4.53;;;16.00;1.00;16.40;99830.00;;;;5092546;28;20488;-81
2021/04/27 11:16:41;;;;;;;4.70;4.10;;;16.10;1.00;16.60;99834.00;;;;5077263;28;20504;-80
2021/04/27 11:19:27;;;;;;;6.10;5.50;;;16.20;1.00;16.90;99806.00;;;;5075030;28;20463;-81
2021/04/27 11:22:13;;;;;;;10.80;4.83;;;16.50;1.00;17.00;99819.00;;;;5097556;28;20465;-81
2021/04/27 11:24:44;;;;;;;6.43;4.30;;;16.50;1.00;17.10;99826.00;;;;5102294;28;20462;-80
2021/04/27 11:27:29;;;;;;;6.33;4.60;;;16.80;1.00;17.30;99826.00;;;;5099510;28;20461;-81